createdAt,value
2019-02-04T00:00:24.311Z,-2.79
2019-02-04T00:02:52.630Z,-2.74
2019-02-04T00:05:20.901Z,-2.69
2019-02-04T00:07:49.183Z,-2.65
2019-02-04T00:10:17.450Z,-2.62
2019-02-04T00:12:45.748Z,-2.58
2019-02-04T00:15:14.011Z,-2.50
2019-02-04T00:17:42.279Z,-2.40
2019-02-04T00:20:11.509Z,-2.35
2019-02-04T00:22:39.832Z,-2.30
2019-02-04T00:25:08.286Z,-2.32
2019-02-04T00:27:36.621Z,-2.36
2019-02-04T00:30:08.177Z,-2.41
2019-02-04T00:32:36.449Z,-2.46
2019-02-04T00:35:05.718Z,-2.52
2019-02-04T00:37:33.961Z,-2.58
2019-02-04T00:40:02.273Z,-2.62
2019-02-04T00:42:30.581Z,-2.68
2019-02-04T00:44:58.850Z,-2.73
2019-02-04T00:47:27.133Z,-2.74
2019-02-04T00:49:55.434Z,-2.76
2019-02-04T00:52:24.149Z,-2.74
2019-02-04T00:54:52.439Z,-2.68
2019-02-04T00:57:20.776Z,-2.62
2019-02-04T00:59:49.088Z,-2.49
2019-02-04T01:02:17.936Z,-2.34
2019-02-04T01:04:46.188Z,-2.20
2019-02-04T01:07:14.497Z,-2.05
2019-02-04T01:09:42.779Z,-1.91
2019-02-04T01:12:11.161Z,-1.75
2019-02-04T01:14:39.592Z,-1.62
2019-02-04T01:17:08.130Z,-1.49
2019-02-04T01:19:36.427Z,-1.36
2019-02-04T01:22:04.710Z,-1.22
2019-02-04T01:24:32.980Z,-1.14
2019-02-04T01:27:01.285Z,-1.08
2019-02-04T01:29:29.556Z,-1.02
2019-02-04T01:31:57.819Z,-0.98
2019-02-04T01:34:26.186Z,-0.92
2019-02-04T01:36:54.461Z,-0.88
2019-02-04T01:39:22.705Z,-0.84
2019-02-04T01:41:50.982Z,-0.81
2019-02-04T01:44:19.358Z,-0.80
2019-02-04T01:46:47.619Z,-0.76
2019-02-04T01:49:15.913Z,-0.77
2019-02-04T01:51:44.173Z,-0.79
2019-02-04T01:54:12.460Z,-0.81
2019-02-04T01:56:40.734Z,-0.77
2019-02-04T01:59:09.026Z,-0.77
2019-02-04T02:01:37.328Z,-0.76
2019-02-04T02:04:05.758Z,-0.77
2019-02-04T02:06:34.040Z,-0.74
2019-02-04T02:09:04.102Z,-0.73
2019-02-04T02:11:32.579Z,-0.75
2019-02-04T02:14:00.862Z,-0.77
2019-02-04T02:16:29.120Z,-0.80
2019-02-04T02:18:57.478Z,-0.82
2019-02-04T02:21:25.787Z,-0.85
2019-02-04T02:23:54.063Z,-0.87
2019-02-04T02:26:22.340Z,-0.89
2019-02-04T02:28:50.640Z,-0.90
2019-02-04T02:31:18.957Z,-0.93
2019-02-04T02:33:47.604Z,-0.98
2019-02-04T02:36:15.883Z,-1.07
2019-02-04T02:38:44.143Z,-1.17
2019-02-04T02:41:12.393Z,-1.22
2019-02-04T02:43:40.857Z,-1.30
2019-02-04T02:46:09.134Z,-1.38
2019-02-04T02:48:37.507Z,-1.45
2019-02-04T02:51:05.768Z,-1.54
2019-02-04T02:53:34.057Z,-1.63
2019-02-04T02:56:02.349Z,-1.71
2019-02-04T02:58:30.614Z,-1.77
2019-02-04T03:00:58.997Z,-1.82
2019-02-04T03:03:27.250Z,-1.80
2019-02-04T03:05:55.913Z,-1.73
2019-02-04T03:08:24.834Z,-1.68
2019-02-04T03:10:53.112Z,-1.69
2019-02-04T03:13:21.366Z,-1.72
2019-02-04T03:15:49.730Z,-1.75
2019-02-04T03:18:18.033Z,-1.77
2019-02-04T03:20:46.496Z,-1.74
2019-02-04T03:23:14.762Z,-1.73
2019-02-04T03:25:43.048Z,-1.70
2019-02-04T03:28:11.314Z,-1.63
2019-02-04T03:30:39.600Z,-1.57
2019-02-04T03:33:07.874Z,-1.53
2019-02-04T03:35:36.176Z,-1.50
2019-02-04T03:38:04.422Z,-1.52
2019-02-04T03:40:32.946Z,-1.53
2019-02-04T03:43:01.253Z,-1.52
2019-02-04T03:45:29.559Z,-1.49
2019-02-04T03:48:06.336Z,-1.39
2019-02-04T03:50:27.818Z,-1.25
2019-02-04T03:52:56.099Z,-1.11
2019-02-04T03:55:24.341Z,-1.03
2019-02-04T03:57:52.606Z,-0.99
2019-02-04T04:00:32.256Z,-0.96
2019-02-04T04:03:00.625Z,-0.98
2019-02-04T04:05:29.055Z,-0.98
2019-02-04T04:07:57.358Z,-0.99
2019-02-04T04:10:25.629Z,-1.07
2019-02-04T04:12:53.888Z,-1.17
2019-02-04T04:15:22.750Z,-1.30
2019-02-04T04:17:51.007Z,-1.42
2019-02-04T04:20:20.406Z,-1.50
2019-02-04T04:22:48.678Z,-1.58
2019-02-04T04:25:19.701Z,-1.59
2019-02-04T04:27:48.348Z,-1.55
2019-02-04T04:30:28.431Z,-1.44
2019-02-04T04:32:56.990Z,-1.40
2019-02-04T04:35:25.287Z,-1.33
2019-02-04T04:37:53.617Z,-1.27
2019-02-04T04:40:21.881Z,-1.22
2019-02-04T04:42:50.176Z,-1.21
2019-02-04T04:45:20.935Z,-1.16
2019-02-04T04:47:49.751Z,-1.15
2019-02-04T04:50:18.013Z,-1.14
2019-02-04T04:52:46.385Z,-1.15
2019-02-04T04:55:17.311Z,-1.15
2019-02-04T04:57:45.580Z,-1.20
2019-02-04T05:00:16.390Z,-1.29
2019-02-04T05:02:44.827Z,-1.36
2019-02-04T05:05:14.160Z,-1.35
2019-02-04T05:07:42.500Z,-1.34
2019-02-04T05:10:13.780Z,-1.33
2019-02-04T05:12:42.032Z,-1.31
2019-02-04T05:15:13.346Z,-1.33
2019-02-04T05:17:41.608Z,-1.32
2019-02-04T05:20:12.596Z,-1.31
2019-02-04T05:22:40.861Z,-1.28
2019-02-04T05:25:09.354Z,-1.26
2019-02-04T05:27:37.825Z,-1.28
2019-02-04T05:30:14.683Z,-1.32
2019-02-04T05:32:42.984Z,-1.37
2019-02-04T05:35:11.445Z,-1.40
2019-02-04T05:37:39.710Z,-1.42
2019-02-04T05:40:10.736Z,-1.47
2019-02-04T05:42:39.025Z,-1.47
2019-02-04T05:45:09.990Z,-1.45
2019-02-04T05:47:38.285Z,-1.48
2019-02-04T05:50:09.718Z,-1.55
2019-02-04T05:52:38.000Z,-1.60
2019-02-04T05:55:07.095Z,-1.63
2019-02-04T05:57:35.520Z,-1.63
2019-02-04T06:00:06.789Z,-1.61
2019-02-04T06:02:35.059Z,-1.61
2019-02-04T06:05:03.783Z,-1.64
2019-02-04T06:07:32.064Z,-1.70
2019-02-04T06:10:00.365Z,-1.76
2019-02-04T06:12:28.604Z,-1.77
2019-02-04T06:14:56.882Z,-1.77
2019-02-04T06:17:25.138Z,-1.80
2019-02-04T06:19:53.438Z,-1.76
2019-02-04T06:22:21.749Z,-1.69
2019-02-04T06:24:50.331Z,-1.64
2019-02-04T06:27:18.596Z,-1.60
2019-02-04T06:29:47.282Z,-1.57
2019-02-04T06:32:15.536Z,-1.55
2019-02-04T06:34:43.814Z,-1.55
2019-02-04T06:37:12.118Z,-1.54
2019-02-04T06:39:40.639Z,-1.52
2019-02-04T06:42:08.898Z,-1.50
2019-02-04T06:44:37.467Z,-1.43
2019-02-04T06:47:05.776Z,-1.40
2019-02-04T06:49:34.021Z,-1.40
2019-02-04T06:52:02.531Z,-1.39
2019-02-04T06:54:30.774Z,-1.40
2019-02-04T06:56:59.314Z,-1.38
2019-02-04T06:59:27.596Z,-1.31
2019-02-04T07:01:57.719Z,-1.23
2019-02-04T07:04:25.891Z,-1.17
2019-02-04T07:06:54.341Z,-1.16
2019-02-04T07:09:22.616Z,-1.13
2019-02-04T07:11:50.923Z,-1.13
2019-02-04T07:14:19.198Z,-1.14
2019-02-04T07:16:47.854Z,-1.13
2019-02-04T07:19:23.678Z,-1.10
2019-02-04T07:21:46.149Z,-1.04
2019-02-04T07:24:14.467Z,-1.00
2019-02-04T07:26:42.758Z,-0.93
2019-02-04T07:29:11.014Z,-0.84
2019-02-04T07:31:39.294Z,-0.79
2019-02-04T07:34:07.561Z,-0.76
2019-02-04T07:36:35.856Z,-0.71
2019-02-04T07:39:06.228Z,-0.68
2019-02-04T07:41:34.509Z,-0.62
2019-02-04T07:44:02.845Z,-0.56
2019-02-04T07:46:31.132Z,-0.54
2019-02-04T07:48:59.667Z,-0.48
2019-02-04T07:51:27.981Z,-0.43
2019-02-04T07:53:56.229Z,-0.37
2019-02-04T07:56:25.431Z,-0.31
2019-02-04T07:58:53.725Z,-0.22
2019-02-04T08:01:22.178Z,-0.15
2019-02-04T08:03:50.819Z,-0.08
2019-02-04T08:06:19.344Z,0.00
2019-02-04T08:08:47.602Z,0.11
2019-02-04T08:11:15.864Z,0.22
2019-02-04T08:13:44.147Z,0.31
2019-02-04T08:16:12.397Z,0.37
2019-02-04T08:18:40.751Z,0.46
2019-02-04T08:21:09.104Z,0.53
2019-02-04T08:23:37.427Z,0.61
2019-02-04T08:26:05.690Z,0.68
2019-02-04T08:28:33.973Z,0.75
2019-02-04T08:31:02.240Z,0.85
2019-02-04T08:33:30.582Z,0.97
2019-02-04T08:35:59.207Z,1.13
2019-02-04T08:38:27.489Z,1.35
2019-02-04T08:40:55.753Z,1.60
2019-02-04T08:43:24.096Z,1.89
2019-02-04T08:45:52.399Z,2.22
2019-02-04T08:48:20.747Z,2.51
2019-02-04T08:50:49.003Z,2.74
2019-02-04T08:53:17.742Z,2.89
2019-02-04T08:55:46.018Z,2.98
2019-02-04T08:58:14.266Z,3.10
2019-02-04T09:00:42.704Z,3.30
2019-02-04T09:03:11.025Z,3.41
2019-02-04T09:05:39.323Z,3.43
2019-02-04T09:08:07.702Z,3.55
2019-02-04T09:10:36.232Z,3.59
2019-02-04T09:13:04.508Z,3.66
2019-02-04T09:15:32.758Z,3.66
2019-02-04T09:18:01.276Z,3.64
2019-02-04T09:20:29.524Z,3.63
2019-02-04T09:22:57.776Z,3.56
2019-02-04T09:25:27.000Z,3.51
2019-02-04T09:27:56.728Z,3.50
2019-02-04T09:30:27.551Z,3.49
2019-02-04T09:32:57.275Z,3.48
2019-02-04T09:35:25.549Z,3.43
2019-02-04T09:37:54.132Z,3.40
2019-02-04T09:40:30.637Z,3.38
2019-02-04T09:42:58.897Z,3.38
2019-02-04T09:45:27.869Z,3.42
2019-02-04T09:47:56.486Z,3.47
2019-02-04T09:50:32.545Z,3.51
2019-02-04T09:53:00.867Z,3.55
2019-02-04T09:55:32.367Z,3.56
2019-02-04T09:58:00.646Z,3.55
2019-02-04T10:00:30.976Z,3.55
2019-02-04T10:02:59.216Z,3.61
2019-02-04T10:05:27.552Z,3.66
2019-02-04T10:07:55.796Z,3.68
2019-02-04T10:10:26.204Z,3.68
2019-02-04T10:12:54.473Z,3.70
2019-02-04T10:15:28.947Z,3.76
2019-02-04T10:17:57.268Z,3.78
2019-02-04T10:20:33.307Z,3.84
2019-02-04T10:22:55.937Z,3.88
2019-02-04T10:25:27.257Z,3.94
2019-02-04T10:27:55.499Z,3.98
2019-02-04T10:30:24.588Z,4.03
2019-02-04T10:32:52.897Z,4.07
2019-02-04T10:35:21.480Z,4.16
2019-02-04T10:37:51.132Z,4.21
2019-02-04T10:40:25.607Z,4.32
2019-02-04T10:42:53.298Z,4.45
2019-02-04T10:45:21.796Z,4.41
2019-02-04T10:47:50.714Z,4.63
2019-02-04T10:50:30.589Z,4.82
2019-02-04T10:52:58.970Z,4.90
2019-02-04T10:55:27.331Z,5.00
2019-02-04T10:57:55.847Z,5.03
2019-02-04T11:00:34.727Z,4.97
2019-02-04T11:03:03.400Z,5.03
2019-02-04T11:05:34.379Z,5.07
2019-02-04T11:08:02.634Z,5.18
2019-02-04T11:10:35.566Z,5.31
2019-02-04T11:13:06.757Z,5.33
2019-02-04T11:15:35.006Z,5.45
2019-02-04T11:18:03.326Z,5.56
2019-02-04T11:20:32.953Z,5.62
2019-02-04T11:23:01.308Z,5.67
2019-02-04T11:25:29.668Z,5.76
2019-02-04T11:27:57.986Z,5.78
2019-02-04T11:30:31.852Z,5.78
2019-02-04T11:33:00.160Z,5.81
2019-02-04T11:35:28.453Z,5.72
2019-02-04T11:37:56.718Z,5.65
2019-02-04T11:40:34.042Z,5.61
2019-02-04T11:43:02.299Z,5.59
2019-02-04T11:45:31.035Z,5.52
2019-02-04T11:47:59.472Z,5.63
2019-02-04T11:50:27.812Z,5.70
2019-02-04T11:52:56.126Z,5.79
2019-02-04T11:55:24.477Z,5.84
2019-02-04T11:57:52.870Z,5.87
2019-02-04T12:00:27.091Z,6.00
2019-02-04T12:02:55.975Z,6.08
2019-02-04T12:05:24.400Z,5.99
2019-02-04T12:07:53.219Z,5.82
2019-02-04T12:10:27.595Z,5.74
2019-02-04T12:12:55.942Z,5.71
2019-02-04T12:15:24.187Z,5.53
2019-02-04T12:17:52.467Z,5.34
2019-02-04T12:20:20.718Z,5.32
2019-02-04T12:22:49.415Z,5.32
2019-02-04T12:25:25.970Z,5.30
2019-02-04T12:27:54.832Z,5.29
2019-02-04T12:30:26.367Z,5.26
2019-02-04T12:32:55.022Z,5.17
2019-02-04T12:35:23.269Z,5.19
2019-02-04T12:37:51.578Z,5.23
2019-02-04T12:40:19.824Z,5.26
2019-02-04T12:42:48.455Z,5.30
2019-02-04T12:45:22.547Z,5.36
2019-02-04T12:47:50.363Z,5.36
2019-02-04T12:50:18.628Z,5.23
2019-02-04T12:52:46.902Z,5.34
2019-02-04T12:55:21.011Z,5.35
2019-02-04T12:57:49.542Z,5.35
2019-02-04T13:00:22.098Z,5.33
2019-02-04T13:02:50.440Z,5.33
2019-02-04T13:05:30.799Z,5.32
2019-02-04T13:07:59.359Z,5.28
2019-02-04T13:10:27.641Z,5.27
2019-02-04T13:12:55.881Z,5.25
2019-02-04T13:15:24.843Z,5.17
2019-02-04T13:17:53.583Z,5.14
2019-02-04T13:20:23.114Z,5.10
2019-02-04T13:22:51.560Z,5.07
2019-02-04T13:25:22.983Z,5.10
2019-02-04T13:27:51.274Z,5.09
2019-02-04T13:30:22.181Z,5.07
2019-02-04T13:32:50.434Z,5.02
2019-02-04T13:35:18.712Z,4.99
2019-02-04T13:37:46.997Z,4.97
2019-02-04T13:40:18.012Z,4.93
2019-02-04T13:42:46.310Z,4.91
2019-02-04T13:45:16.981Z,4.88
2019-02-04T13:47:45.263Z,4.86
2019-02-04T13:50:15.541Z,4.82
2019-02-04T13:52:44.350Z,4.83
2019-02-04T13:55:15.856Z,4.80
2019-02-04T13:57:44.171Z,4.78
2019-02-04T14:00:14.132Z,4.78
2019-02-04T14:02:42.390Z,4.78
2019-02-04T14:05:11.513Z,4.78
2019-02-04T14:07:39.939Z,4.76
2019-02-04T14:10:23.565Z,4.78
2019-02-04T14:12:52.018Z,4.77
2019-02-04T14:15:20.296Z,4.73
2019-02-04T14:17:48.540Z,4.70
2019-02-04T14:20:20.459Z,4.67
2019-02-04T14:22:48.878Z,4.64
2019-02-04T14:25:17.359Z,4.61
2019-02-04T14:27:45.642Z,4.59
2019-02-04T14:30:25.645Z,4.62
2019-02-04T14:32:53.888Z,4.61
2019-02-04T14:35:22.168Z,4.60
2019-02-04T14:37:50.414Z,4.59
2019-02-04T14:40:19.138Z,4.58
2019-02-04T14:42:50.812Z,4.58
2019-02-04T14:45:28.207Z,4.58
2019-02-04T14:48:26.380Z,4.56
2019-02-04T14:50:57.913Z,4.53
2019-02-04T14:53:32.600Z,4.49
2019-02-04T14:56:06.920Z,4.47
2019-02-04T14:58:44.778Z,4.48
2019-02-04T15:01:16.343Z,4.46
2019-02-04T15:03:53.930Z,4.45
2019-02-04T15:06:51.465Z,4.43
2019-02-04T15:09:35.277Z,4.43
2019-02-04T15:12:23.496Z,4.43
2019-02-04T15:15:04.009Z,4.42
2019-02-04T15:17:33.338Z,4.44
2019-02-04T15:20:13.825Z,4.41
2019-02-04T15:22:54.185Z,4.41
2019-02-04T15:25:28.414Z,4.40
2019-02-04T15:28:12.165Z,4.39
2019-02-04T15:30:49.608Z,4.41
2019-02-04T15:33:21.598Z,4.40
2019-02-04T15:36:07.880Z,4.40
2019-02-04T15:38:39.748Z,4.39
2019-02-04T15:41:17.280Z,4.38
2019-02-04T15:44:11.545Z,4.37
2019-02-04T15:46:48.609Z,4.39
2019-02-04T15:49:29.768Z,4.38
2019-02-04T15:51:58.489Z,4.41
2019-02-04T15:54:26.856Z,4.41
2019-02-04T15:56:55.383Z,4.40
2019-02-04T15:59:23.633Z,4.40
2019-02-04T16:01:52.290Z,4.38
2019-02-04T16:04:34.237Z,4.36
2019-02-04T16:07:03.439Z,4.35
2019-02-04T16:09:31.687Z,4.31
2019-02-04T16:11:59.926Z,4.32
2019-02-04T16:14:28.603Z,4.30
2019-02-04T16:16:56.847Z,4.29
2019-02-04T16:19:25.126Z,4.29
2019-02-04T16:21:53.467Z,4.27
2019-02-04T16:24:22.666Z,4.23
2019-02-04T16:26:51.104Z,4.23
2019-02-04T16:29:19.361Z,4.21
2019-02-04T16:31:47.942Z,4.20
2019-02-04T16:34:16.185Z,4.20
2019-02-04T16:36:44.459Z,4.19
2019-02-04T16:39:12.722Z,4.18
2019-02-04T16:41:40.971Z,4.16
2019-02-04T16:44:09.323Z,4.14
2019-02-04T16:46:37.570Z,4.12
2019-02-04T16:49:05.814Z,4.13
2019-02-04T16:51:34.095Z,4.08
2019-02-04T16:54:02.570Z,4.11
2019-02-04T16:56:30.826Z,4.11
2019-02-04T16:58:59.252Z,4.14
2019-02-04T17:01:27.527Z,4.14
2019-02-04T17:03:56.142Z,4.13
2019-02-04T17:06:24.389Z,4.11
2019-02-04T17:08:52.713Z,4.11
2019-02-04T17:11:20.961Z,4.09
2019-02-04T17:13:49.236Z,4.09
2019-02-04T17:16:17.549Z,4.07
2019-02-04T17:18:45.841Z,4.08
2019-02-04T17:21:14.087Z,4.05
2019-02-04T17:23:42.421Z,4.04
2019-02-04T17:26:10.700Z,4.04
2019-02-04T17:28:39.084Z,4.03
2019-02-04T17:31:07.329Z,3.99
2019-02-04T17:33:35.626Z,4.02
2019-02-04T17:36:04.337Z,4.03
2019-02-04T17:38:32.611Z,4.04
2019-02-04T17:41:00.983Z,4.05
2019-02-04T17:43:29.218Z,4.05
2019-02-04T17:45:57.576Z,4.03
2019-02-04T17:48:26.823Z,4.03
2019-02-04T17:50:55.331Z,4.04
2019-02-04T17:53:33.944Z,4.03
2019-02-04T17:55:53.880Z,4.02
2019-02-04T17:58:22.154Z,4.00
2019-02-04T18:00:51.566Z,3.99
2019-02-04T18:03:19.810Z,3.99
2019-02-04T18:05:48.072Z,3.98
2019-02-04T18:08:16.511Z,3.96
2019-02-04T18:10:44.743Z,3.94
2019-02-04T18:13:13.027Z,3.91
2019-02-04T18:15:41.277Z,3.92
2019-02-04T18:18:09.536Z,3.93
2019-02-04T18:20:37.821Z,3.94
2019-02-04T18:23:06.474Z,3.95
2019-02-04T18:25:34.706Z,3.94
2019-02-04T18:28:03.261Z,3.98
2019-02-04T18:30:31.981Z,3.98
2019-02-04T18:33:00.304Z,4.01
2019-02-04T18:35:29.020Z,3.99
2019-02-04T18:37:57.309Z,3.97
2019-02-04T18:40:25.701Z,3.97
2019-02-04T18:42:54.324Z,3.97
2019-02-04T18:45:31.119Z,3.97
2019-02-04T18:47:59.443Z,3.99
2019-02-04T18:50:28.097Z,4.01
2019-02-04T18:52:56.342Z,4.00
2019-02-04T18:55:29.865Z,4.02
2019-02-04T18:57:58.138Z,4.02
2019-02-04T19:00:28.902Z,4.04
2019-02-04T19:02:57.490Z,4.03
2019-02-04T19:05:26.824Z,4.05
2019-02-04T19:07:55.315Z,4.04
2019-02-04T19:10:24.056Z,4.02
2019-02-04T19:12:52.298Z,4.01
2019-02-04T19:15:28.481Z,4.02
2019-02-04T19:18:06.319Z,4.04
2019-02-04T19:20:34.604Z,4.07
2019-02-04T19:23:02.848Z,4.10
2019-02-04T19:25:31.295Z,4.09
2019-02-04T19:27:59.544Z,4.07
2019-02-04T19:30:33.919Z,4.06
2019-02-04T19:33:01.571Z,4.07
2019-02-04T19:35:29.954Z,4.00
2019-02-04T19:37:58.213Z,4.04
2019-02-04T19:40:26.973Z,4.03
2019-02-04T19:42:55.246Z,4.03
2019-02-04T19:45:26.034Z,4.04
2019-02-04T19:47:54.618Z,4.05
2019-02-04T19:50:34.061Z,4.02
2019-02-04T19:53:02.342Z,3.98
2019-02-04T19:55:30.578Z,3.95
2019-02-04T19:57:58.863Z,3.94
2019-02-04T20:00:27.869Z,3.94
2019-02-04T20:02:56.123Z,3.92
2019-02-04T20:05:28.876Z,3.91
2019-02-04T20:07:57.107Z,3.87
2019-02-04T20:10:32.376Z,3.87
2019-02-04T20:13:00.686Z,3.83
2019-02-04T20:15:30.790Z,3.78
2019-02-04T20:17:59.023Z,3.77
2019-02-04T20:20:27.506Z,3.73
2019-02-04T20:22:56.248Z,3.71
2019-02-04T20:25:29.681Z,3.70
2019-02-04T20:27:58.000Z,3.69
2019-02-04T20:30:43.517Z,3.67
2019-02-04T20:33:01.994Z,3.68
2019-02-04T20:35:30.273Z,3.68
2019-02-04T20:37:58.608Z,3.68
2019-02-04T20:40:27.701Z,3.69
2019-02-04T20:42:55.959Z,3.68
2019-02-04T20:45:24.603Z,3.69
2019-02-04T20:47:53.019Z,3.68
2019-02-04T20:50:24.726Z,3.67
2019-02-04T20:52:53.187Z,3.67
2019-02-04T20:55:21.540Z,3.66
2019-02-04T20:57:49.832Z,3.68
2019-02-04T21:00:20.627Z,3.70
2019-02-04T21:02:48.877Z,3.67
2019-02-04T21:05:17.145Z,3.65
2019-02-04T21:07:45.422Z,3.65
2019-02-04T21:10:17.182Z,3.67
2019-02-04T21:12:45.432Z,3.66
2019-02-04T21:15:16.226Z,3.64
2019-02-04T21:17:44.721Z,3.66
2019-02-04T21:20:18.102Z,3.65
2019-02-04T21:22:45.722Z,3.66
2019-02-04T21:25:14.467Z,3.59
2019-02-04T21:27:42.901Z,3.60
2019-02-04T21:30:20.373Z,3.62
2019-02-04T21:32:48.668Z,3.65
2019-02-04T21:35:16.914Z,3.63
2019-02-04T21:37:45.163Z,3.61
2019-02-04T21:40:17.868Z,3.58
2019-02-04T21:42:46.530Z,3.55
2019-02-04T21:45:20.207Z,3.52
2019-02-04T21:47:47.847Z,3.52
2019-02-04T21:50:19.367Z,3.44
2019-02-04T21:52:47.645Z,3.46
2019-02-04T21:55:16.134Z,3.48
2019-02-04T21:57:44.812Z,3.49
2019-02-04T22:00:16.392Z,3.51
2019-02-04T22:02:44.715Z,3.52
2019-02-04T22:05:15.785Z,3.51
2019-02-04T22:07:44.038Z,3.49
2019-02-04T22:10:15.236Z,3.49
2019-02-04T22:12:43.583Z,3.50
2019-02-04T22:15:11.860Z,3.49
2019-02-04T22:17:40.141Z,3.48
2019-02-04T22:20:14.308Z,3.46
2019-02-04T22:22:42.586Z,3.44
2019-02-04T22:25:19.488Z,3.41
2019-02-04T22:27:42.694Z,3.41
2019-02-04T22:30:14.588Z,3.40
2019-02-04T22:32:43.102Z,3.39
2019-02-04T22:35:11.647Z,3.38
2019-02-04T22:37:39.920Z,3.38
2019-02-04T22:40:17.021Z,3.37
2019-02-04T22:42:45.282Z,3.37
2019-02-04T22:45:16.031Z,3.36
2019-02-04T22:47:44.291Z,3.36
2019-02-04T22:50:18.096Z,3.35
2019-02-04T22:52:46.388Z,3.36
2019-02-04T22:55:14.903Z,3.35
2019-02-04T22:57:43.145Z,3.35
2019-02-04T23:00:41.703Z,3.34
2019-02-04T23:03:10.628Z,3.33
2019-02-04T23:05:38.850Z,3.28
2019-02-04T23:08:07.252Z,3.23
2019-02-04T23:10:35.451Z,3.19
2019-02-04T23:13:03.688Z,3.14
2019-02-04T23:15:31.958Z,3.08
2019-02-04T23:18:00.249Z,3.04
2019-02-04T23:20:28.781Z,2.99
2019-02-04T23:22:57.030Z,2.94
2019-02-04T23:25:25.478Z,2.91
2019-02-04T23:27:53.764Z,2.89
2019-02-04T23:30:22.304Z,2.88
2019-02-04T23:32:50.519Z,2.87
2019-02-04T23:35:19.083Z,2.84
2019-02-04T23:37:47.365Z,2.80
2019-02-04T23:40:16.947Z,2.77
2019-02-04T23:42:45.348Z,2.75
2019-02-04T23:45:13.668Z,2.65
2019-02-04T23:47:41.910Z,2.63
2019-02-04T23:50:15.089Z,2.58
2019-02-04T23:52:43.334Z,2.55
2019-02-04T23:55:12.565Z,2.52
2019-02-04T23:57:40.993Z,2.46
